Eagle Lake, Florida
Current Conditions -  °F | °C
As of 12:55 AM on Thursday 23 Oct 2014 (Local Time) from KBOW Reporting Station
Clear Clear  
Wind Chill: 66°   Ceiling: Unl
Heat Index: 66°   Visibility: 10mi
Dew Point: 61°   Wind: 8mph
Humidity: 83%   Direction: 40°NE
Pressure: 29.99"   Gusts: NA
Location:  27.98°N, 81.76°W
Report Text: KBOW 230455Z AUTO 04007KT 10SM CLR 19/16 A2999 RMK AO2
Loading
Personal Weather Stations






























Interactive Weather Map
Tropical Storm Tracking
New forecast layout! Learn more

10-Day Weather Forecast

Advertisements
Track Severe Weather on mobile